Time;durP1;ratioP1;P1;durP2;ratioP2;P2;SDS_P1;SDS_P2;PMS_P1;PMS_P2;Temp;Humidity;BMP_temperature;BMP_pressure;BME280_temperature;BME280_humidity;BME280_pressure;Samples;Min_cycle;Max_cycle;Signal;HPM_P1;HPM_P2
2023/04/14 00:01:21;;;;;;;1.30;1.20;;;6.00;99.90;;;;;;4975272;28;20217;-63
2023/04/14 00:03:48;;;;;;;1.38;1.27;;;6.00;99.90;;;;;;4975854;28;20223;-64
2023/04/14 00:06:14;;;;;;;1.17;1.13;;;5.90;99.90;;;;;;4975981;28;20213;-63
2023/04/14 00:08:43;;;;;;;1.15;1.15;;;5.90;99.90;;;;;;4976562;28;20236;-63
2023/04/14 00:11:09;;;;;;;1.23;1.20;;;5.80;99.90;;;;;;4975402;28;20306;-65
2023/04/14 00:13:36;;;;;;;1.77;1.30;;;5.70;99.90;;;;;;4975603;28;20223;-63
2023/04/14 00:16:03;;;;;;;1.30;1.20;;;5.80;99.90;;;;;;4975685;28;20677;-62
2023/04/14 00:18:30;;;;;;;1.40;1.30;;;5.70;99.90;;;;;;4975817;28;20237;-65
2023/04/14 00:20:57;;;;;;;1.10;1.10;;;5.80;99.90;;;;;;4975328;28;20207;-65
2023/04/14 00:23:24;;;;;;;1.20;1.10;;;5.80;99.90;;;;;;4977547;28;20213;-65
2023/04/14 00:25:52;;;;;;;1.33;1.23;;;5.80;99.90;;;;;;4986914;28;20635;-63
2023/04/14 00:28:19;;;;;;;1.10;1.00;;;5.80;99.90;;;;;;4988177;28;20230;-64
2023/04/14 00:30:46;;;;;;;1.05;1.05;;;5.70;99.90;;;;;;4976517;28;20209;-64
2023/04/14 00:33:13;;;;;;;1.30;1.20;;;5.80;99.90;;;;;;4975561;28;20225;-65
2023/04/14 00:35:40;;;;;;;1.00;1.00;;;5.80;99.90;;;;;;4975687;28;20624;-64
2023/04/14 00:38:07;;;;;;;1.40;1.30;;;5.80;99.90;;;;;;4976673;28;20317;-65
2023/04/14 00:40:33;;;;;;;1.03;1.03;;;5.80;99.90;;;;;;4974853;28;20207;-64
2023/04/14 00:43:01;;;;;;;1.42;1.23;;;5.90;99.90;;;;;;4978442;28;20209;-64
2023/04/14 00:45:28;;;;;;;1.20;1.20;;;5.80;99.90;;;;;;4979919;28;20686;-65
2023/04/14 00:47:56;;;;;;;1.40;1.13;;;5.80;99.90;;;;;;4977544;28;20226;-64
2023/04/14 00:50:23;;;;;;;1.38;1.27;;;5.80;99.90;;;;;;4975503;28;20213;-64
2023/04/14 00:52:52;;;;;;;1.40;1.25;;;5.80;99.90;;;;;;4975763;28;20260;-65
2023/04/14 00:55:19;;;;;;;1.10;1.10;;;5.80;99.90;;;;;;4975292;28;20206;-63
2023/04/14 00:57:47;;;;;;;1.10;1.10;;;5.80;99.90;;;;;;4975037;28;20606;-65
2023/04/14 01:00:17;;;;;;;1.15;1.15;;;5.70;99.90;;;;;;4973966;28;20214;-65
2023/04/14 01:02:43;;;;;;;1.48;1.30;;;5.60;99.90;;;;;;4970480;28;20242;-64
2023/04/14 01:05:10;;;;;;;0.93;0.93;;;5.60;99.90;;;;;;4975330;28;20213;-66
2023/04/14 01:07:38;;;;;;;1.45;1.35;;;5.60;99.90;;;;;;4975547;28;20215;-64
2023/04/14 01:10:06;;;;;;;1.00;1.00;;;5.60;99.90;;;;;;4974081;28;20225;-64
2023/04/14 01:12:44;;;;;;;1.30;1.20;;;5.50;99.90;;;;;;4972147;28;20226;-66
2023/04/14 01:15:17;;;;;;;1.30;1.20;;;5.50;99.90;;;;;;4975114;28;20289;-64
2023/04/14 01:17:53;;;;;;;1.40;1.30;;;5.40;99.90;;;;;;4974874;28;20211;-64
2023/04/14 01:20:26;;;;;;;1.00;1.00;;;5.30;99.90;;;;;;4974194;28;20226;-65
2023/04/14 01:22:58;;;;;;;0.93;0.93;;;5.30;99.90;;;;;;4974842;28;20265;-65
2023/04/14 01:25:50;;;;;;;1.40;1.30;;;5.30;99.90;;;;;;4978820;28;20242;-66
2023/04/14 01:28:37;;;;;;;1.30;1.20;;;5.30;99.90;;;;;;4979170;28;20233;-65
2023/04/14 01:31:17;;;;;;;1.00;1.00;;;5.30;99.90;;;;;;4980311;28;20297;-66
2023/04/14 01:33:49;;;;;;;1.10;1.10;;;5.30;99.90;;;;;;4984911;28;20321;-65
2023/04/14 01:36:26;;;;;;;1.20;1.10;;;5.20;99.90;;;;;;4974596;28;20682;-64
2023/04/14 01:38:54;;;;;;;1.17;1.08;;;5.20;99.90;;;;;;4974664;28;20230;-65
2023/04/14 01:41:22;;;;;;;1.30;1.20;;;5.20;99.90;;;;;;4974133;28;20290;-64
2023/04/14 01:43:53;;;;;;;1.15;1.15;;;5.20;99.90;;;;;;4974559;28;20214;-64
2023/04/14 01:46:22;;;;;;;1.17;1.17;;;5.20;99.90;;;;;;4974240;28;20214;-64
2023/04/14 01:48:50;;;;;;;1.47;1.30;;;5.20;99.90;;;;;;4974553;28;20607;-65
2023/04/14 01:51:19;;;;;;;1.23;1.23;;;5.20;99.90;;;;;;4973427;28;20210;-64
2023/04/14 01:53:48;;;;;;;1.00;1.00;;;5.20;99.90;;;;;;4974490;28;20289;-65
2023/04/14 01:56:17;;;;;;;1.27;1.17;;;5.20;99.90;;;;;;4974361;28;20242;-65
2023/04/14 01:58:46;;;;;;;1.30;1.20;;;5.20;99.90;;;;;;4974145;28;20313;-65
2023/04/14 02:01:13;;;;;;;1.40;1.30;;;5.10;99.90;;;;;;4968732;28;20684;-63
2023/04/14 02:03:43;;;;;;;1.20;1.20;;;5.10;99.90;;;;;;4973936;28;20203;-64
2023/04/14 02:06:12;;;;;;;1.10;1.10;;;5.10;99.90;;;;;;4973839;28;20565;-64
2023/04/14 02:08:41;;;;;;;1.30;1.20;;;5.00;99.90;;;;;;4972691;28;20241;-64
2023/04/14 02:11:09;;;;;;;1.40;1.30;;;5.00;99.90;;;;;;4972998;28;20561;-63
2023/04/14 02:13:39;;;;;;;1.37;1.27;;;4.90;99.90;;;;;;4973690;28;20242;-63
2023/04/14 02:16:09;;;;;;;1.20;1.10;;;4.90;99.90;;;;;;4974031;28;20221;-65
2023/04/14 02:18:37;;;;;;;1.15;1.15;;;4.90;99.90;;;;;;4973896;28;20672;-63
2023/04/14 02:21:06;;;;;;;1.13;1.13;;;4.90;99.90;;;;;;4973075;28;20218;-66
2023/04/14 02:23:33;;;;;;;1.48;1.38;;;4.90;99.90;;;;;;4974043;28;20206;-65
2023/04/14 02:26:04;;;;;;;1.60;1.50;;;4.90;99.90;;;;;;4974250;28;20684;-65
2023/04/14 02:28:35;;;;;;;1.80;1.30;;;4.90;99.90;;;;;;4989681;28;20230;-65
2023/04/14 02:31:07;;;;;;;1.83;1.30;;;4.80;99.90;;;;;;4991384;28;20210;-64
2023/04/14 02:33:38;;;;;;;0.98;0.98;;;4.80;99.90;;;;;;4992555;28;20214;-66
2023/04/14 02:36:13;;;;;;;1.40;1.30;;;4.70;99.90;;;;;;4991971;28;20223;-64
2023/04/14 02:38:45;;;;;;;0.95;0.95;;;4.70;99.90;;;;;;4988375;28;20241;-64
2023/04/14 02:41:19;;;;;;;1.77;1.48;;;4.60;99.90;;;;;;4989148;28;20234;-65
2023/04/14 02:43:50;;;;;;;1.17;1.08;;;4.60;99.90;;;;;;4990072;28;20199;-64
2023/04/14 02:46:19;;;;;;;1.15;1.10;;;4.50;99.90;;;;;;4979068;28;20261;-63
2023/04/14 02:48:48;;;;;;;1.10;1.10;;;4.50;99.90;;;;;;4978865;28;20245;-63
2023/04/14 02:51:19;;;;;;;1.30;1.20;;;4.50;99.90;;;;;;4978127;28;20241;-64
2023/04/14 02:53:46;;;;;;;1.20;1.10;;;4.50;99.90;;;;;;4977077;28;20268;-63
2023/04/14 02:56:13;;;;;;;2.20;1.40;;;4.50;99.90;;;;;;4976216;28;20218;-62
2023/04/14 02:58:40;;;;;;;1.95;1.52;;;4.50;99.90;;;;;;4975705;28;20232;-65
2023/04/14 03:01:08;;;;;;;1.03;1.03;;;4.50;99.90;;;;;;4974827;28;20217;-65
2023/04/14 03:03:36;;;;;;;1.35;1.25;;;4.40;99.90;;;;;;4974391;28;20771;-64
2023/04/14 03:06:05;;;;;;;1.20;1.10;;;4.40;99.90;;;;;;4975409;28;20214;-64
2023/04/14 03:08:34;;;;;;;1.27;1.17;;;4.40;99.90;;;;;;4975067;28;20237;-65
2023/04/14 03:11:03;;;;;;;1.25;1.20;;;4.30;99.90;;;;;;4976514;28;20221;-63
2023/04/14 03:13:33;;;;;;;1.37;1.30;;;4.20;99.90;;;;;;4981065;28;20226;-64
2023/04/14 03:16:00;;;;;;;1.23;1.13;;;4.30;99.90;;;;;;4981607;28;20265;-63
2023/04/14 03:18:27;;;;;;;1.00;1.00;;;4.20;99.90;;;;;;4982770;28;20222;-64
2023/04/14 03:20:55;;;;;;;1.02;1.02;;;4.30;99.90;;;;;;4977393;28;20206;-65
2023/04/14 03:23:24;;;;;;;1.02;1.02;;;4.30;99.90;;;;;;4974309;28;20202;-64
2023/04/14 03:25:54;;;;;;;1.05;1.02;;;4.30;99.90;;;;;;4977650;28;20584;-64
2023/04/14 03:28:23;;;;;;;1.38;1.27;;;4.30;99.90;;;;;;4976637;28;20222;-64
2023/04/14 03:30:52;;;;;;;1.37;1.27;;;4.30;99.90;;;;;;4975165;28;20213;-66
2023/04/14 03:33:23;;;;;;;1.30;1.20;;;4.30;99.90;;;;;;4976101;28;20222;-64
2023/04/14 03:35:53;;;;;;;1.30;1.20;;;4.30;99.90;;;;;;4975574;28;20191;-63
2023/04/14 03:38:22;;;;;;;1.30;1.20;;;4.40;99.90;;;;;;4973848;28;20256;-66
2023/04/14 03:40:50;;;;;;;1.93;1.50;;;4.40;99.90;;;;;;4972352;28;20214;-65
2023/04/14 03:43:21;;;;;;;1.08;1.00;;;4.30;99.90;;;;;;4973021;28;20216;-64
2023/04/14 03:45:50;;;;;;;1.13;1.00;;;4.40;99.90;;;;;;4973394;28;20317;-64
2023/04/14 03:48:19;;;;;;;1.10;1.10;;;4.30;99.90;;;;;;4973081;28;20231;-65
2023/04/14 03:50:50;;;;;;;1.13;0.98;;;4.40;99.90;;;;;;4971811;28;20206;-65
2023/04/14 03:53:19;;;;;;;1.38;1.27;;;4.30;99.90;;;;;;4972942;28;20241;-64
2023/04/14 03:55:48;;;;;;;1.02;1.02;;;4.30;99.90;;;;;;4972988;28;20674;-64
2023/04/14 03:58:16;;;;;;;1.40;1.30;;;4.30;99.90;;;;;;4972631;28;20611;-65
2023/04/14 04:00:45;;;;;;;1.33;1.23;;;4.20;99.90;;;;;;4981785;28;20221;-65
2023/04/14 04:03:14;;;;;;;1.37;1.27;;;4.20;99.90;;;;;;4984973;28;20213;-65
2023/04/14 04:05:42;;;;;;;1.35;1.20;;;4.10;99.90;;;;;;4973187;28;20297;-63
2023/04/14 04:08:10;;;;;;;1.17;1.17;;;4.10;99.90;;;;;;4972947;28;20240;-64
2023/04/14 04:10:38;;;;;;;1.27;1.20;;;4.10;99.90;;;;;;4972034;28;20210;-63
2023/04/14 04:13:10;;;;;;;1.50;1.40;;;4.10;99.90;;;;;;4976852;28;20218;-65
2023/04/14 04:15:38;;;;;;;1.33;1.23;;;4.00;99.90;;;;;;4974923;28;20627;-61
2023/04/14 04:18:08;;;;;;;1.10;1.10;;;4.10;99.90;;;;;;4973749;28;20231;-64
2023/04/14 04:20:37;;;;;;;1.08;1.08;;;4.00;99.90;;;;;;4971867;28;20568;-64
2023/04/14 04:23:07;;;;;;;1.45;1.35;;;3.90;99.90;;;;;;4972608;28;20207;-63
2023/04/14 04:25:36;;;;;;;1.00;1.00;;;3.90;99.90;;;;;;4974053;28;20282;-65
2023/04/14 04:28:03;;;;;;;1.10;1.10;;;3.90;99.90;;;;;;4975755;28;20230;-64
2023/04/14 04:30:32;;;;;;;1.17;1.13;;;3.90;99.90;;;;;;4976466;28;20736;-65
2023/04/14 04:33:01;;;;;;;1.07;1.07;;;3.90;99.90;;;;;;4993577;28;20221;-65
2023/04/14 04:35:31;;;;;;;1.13;1.13;;;3.90;99.90;;;;;;4994866;28;20225;-63
2023/04/14 04:37:59;;;;;;;1.20;1.20;;;4.00;99.90;;;;;;4994820;28;20731;-64
2023/04/14 04:40:26;;;;;;;1.27;1.17;;;3.90;99.90;;;;;;4993877;28;20299;-64
2023/04/14 04:42:53;;;;;;;1.20;1.20;;;3.90;99.90;;;;;;4995411;28;20217;-61
2023/04/14 04:45:40;;;;;;;1.25;1.20;;;4.00;99.90;;;;;;4995374;28;20233;-62
2023/04/14 04:48:07;;;;;;;1.30;1.20;;;3.90;99.90;;;;;;4995003;28;20222;-64
2023/04/14 04:50:35;;;;;;;0.95;0.95;;;3.80;99.90;;;;;;4994035;28;20206;-63
2023/04/14 04:53:02;;;;;;;1.33;1.23;;;3.80;99.90;;;;;;4994409;28;20660;-63
2023/04/14 04:55:29;;;;;;;1.40;1.30;;;3.80;99.90;;;;;;4994632;28;20208;-62
2023/04/14 04:57:56;;;;;;;1.23;1.20;;;3.80;99.90;;;;;;4994336;28;20347;-62
2023/04/14 05:00:24;;;;;;;1.20;1.20;;;3.90;99.90;;;;;;4994639;28;20210;-62
2023/04/14 05:02:51;;;;;;;1.50;1.40;;;3.90;99.90;;;;;;4993589;28;20210;-61
2023/04/14 05:05:18;;;;;;;1.13;1.10;;;3.90;99.90;;;;;;4991068;28;20202;-64
2023/04/14 05:07:46;;;;;;;1.38;1.27;;;3.90;99.90;;;;;;4997126;28;20213;-62
2023/04/14 05:10:13;;;;;;;1.53;1.43;;;3.90;99.90;;;;;;5004595;28;20560;-64
2023/04/14 05:12:40;;;;;;;1.42;1.33;;;3.90;99.90;;;;;;4994880;28;20261;-64
2023/04/14 05:15:08;;;;;;;1.40;1.30;;;4.00;99.90;;;;;;4996929;28;20230;-64
2023/04/14 05:17:35;;;;;;;1.60;1.50;;;4.00;99.90;;;;;;4998718;28;20688;-63
2023/04/14 05:20:04;;;;;;;1.30;1.20;;;3.90;99.90;;;;;;4997534;28;20229;-61
2023/04/14 05:22:32;;;;;;;1.27;1.17;;;4.00;99.90;;;;;;4999313;28;20213;-63
2023/04/14 05:25:00;;;;;;;1.30;1.20;;;3.90;99.90;;;;;;4999277;28;20230;-62
2023/04/14 05:27:27;;;;;;;1.60;1.50;;;3.90;99.90;;;;;;4998346;28;20202;-62
2023/04/14 05:29:54;;;;;;;1.38;1.27;;;3.90;99.90;;;;;;4994709;28;20315;-63
2023/04/14 05:32:21;;;;;;;1.23;1.13;;;3.90;99.90;;;;;;4998326;28;20261;-64
2023/04/14 05:34:48;;;;;;;1.48;1.38;;;4.10;99.90;;;;;;5002495;28;20229;-63
2023/04/14 05:37:15;;;;;;;1.27;1.13;;;4.10;99.90;;;;;;5011403;28;20289;-62
2023/04/14 05:39:42;;;;;;;1.60;1.50;;;4.10;99.90;;;;;;5011316;28;20233;-62
2023/04/14 05:42:11;;;;;;;1.13;1.13;;;4.20;99.90;;;;;;5008116;28;20264;-64
2023/04/14 05:44:37;;;;;;;1.38;1.30;;;4.20;99.90;;;;;;5003608;28;20261;-61
2023/04/14 05:47:05;;;;;;;1.27;1.20;;;4.30;99.90;;;;;;4998972;28;20237;-63
2023/04/14 05:49:32;;;;;;;1.10;1.00;;;4.30;99.90;;;;;;4997788;28;20226;-64
2023/04/14 05:51:59;;;;;;;1.30;1.20;;;4.40;99.90;;;;;;4996965;28;20209;-63
2023/04/14 05:54:26;;;;;;;1.42;1.33;;;4.50;99.90;;;;;;4998383;28;20332;-62
2023/04/14 05:56:52;;;;;;;1.83;1.25;;;4.50;99.90;;;;;;4975313;28;20226;-62
2023/04/14 05:59:20;;;;;;;1.83;1.30;;;4.60;99.90;;;;;;4977136;28;20234;-63
2023/04/14 06:01:47;;;;;;;1.30;1.20;;;4.60;99.90;;;;;;4980560;28;20210;-64
2023/04/14 06:04:15;;;;;;;1.47;1.37;;;4.70;99.90;;;;;;4984449;28;20203;-64
2023/04/14 06:06:41;;;;;;;1.20;1.20;;;4.90;99.90;;;;;;4984127;28;20215;-62
2023/04/14 06:09:08;;;;;;;1.95;1.38;;;5.00;99.90;;;;;;4976207;28;20337;-64
2023/04/14 06:11:36;;;;;;;1.90;1.15;;;5.10;99.90;;;;;;4975997;28;20673;-62
2023/04/14 06:14:06;;;;;;;2.00;1.30;;;5.10;99.90;;;;;;4977107;28;20542;-63
2023/04/14 06:16:34;;;;;;;1.20;1.20;;;5.20;99.90;;;;;;4974996;28;20573;-63
2023/04/14 06:19:01;;;;;;;1.23;1.20;;;5.30;99.90;;;;;;4975004;28;20281;-61
2023/04/14 06:21:27;;;;;;;1.58;1.48;;;5.40;99.90;;;;;;4974121;28;20207;-62
2023/04/14 06:23:54;;;;;;;1.30;1.20;;;5.50;99.90;;;;;;4973749;28;20218;-64
2023/04/14 06:26:21;;;;;;;1.03;1.00;;;5.50;99.90;;;;;;4974149;28;20214;-63
2023/04/14 06:28:48;;;;;;;1.40;1.30;;;5.60;99.90;;;;;;4983886;28;20226;-63
2023/04/14 06:31:15;;;;;;;1.17;1.13;;;5.70;99.90;;;;;;4981436;28;20302;-63
2023/04/14 06:33:43;;;;;;;1.33;1.33;;;5.80;99.90;;;;;;4974821;28;20210;-63
2023/04/14 06:36:10;;;;;;;1.40;1.30;;;6.00;99.90;;;;;;4974553;28;20258;-63
2023/04/14 06:38:37;;;;;;;1.17;1.17;;;6.10;99.90;;;;;;4974733;28;20317;-63
2023/04/14 06:41:03;;;;;;;1.30;1.20;;;6.20;99.90;;;;;;4973814;28;20206;-62
2023/04/14 06:43:30;;;;;;;1.13;1.13;;;6.30;99.90;;;;;;4974202;28;20210;-63
2023/04/14 06:45:57;;;;;;;1.10;1.10;;;6.40;99.90;;;;;;4974540;28;20221;-64
2023/04/14 06:48:24;;;;;;;1.20;1.20;;;6.50;99.90;;;;;;4975097;28;20226;-62
2023/04/14 06:50:55;;;;;;;1.10;1.10;;;6.50;99.90;;;;;;4979064;28;20233;-62
2023/04/14 06:53:22;;;;;;;1.50;1.40;;;6.60;99.90;;;;;;4979007;28;20699;-62
2023/04/14 06:55:50;;;;;;;1.40;1.30;;;6.70;99.90;;;;;;4974021;28;20636;-62
2023/04/14 06:58:17;;;;;;;1.53;1.43;;;6.80;99.90;;;;;;4973859;28;20238;-62
2023/04/14 07:00:44;;;;;;;1.17;1.17;;;6.90;99.90;;;;;;4973353;28;20221;-64
2023/04/14 07:03:11;;;;;;;1.30;1.20;;;7.00;99.90;;;;;;4974228;28;20210;-63
2023/04/14 07:05:38;;;;;;;1.10;1.10;;;7.10;99.90;;;;;;4975194;28;20297;-63
2023/04/14 07:08:06;;;;;;;1.30;1.20;;;7.20;99.90;;;;;;4976032;28;20230;-63
2023/04/14 07:10:33;;;;;;;1.27;1.17;;;7.40;99.90;;;;;;4975782;28;20214;-62
2023/04/14 07:12:59;;;;;;;1.20;1.20;;;7.50;99.90;;;;;;4975789;28;20213;-62
2023/04/14 07:15:26;;;;;;;1.30;1.20;;;7.70;99.90;;;;;;4977761;28;20293;-62
2023/04/14 07:17:53;;;;;;;1.07;1.07;;;7.80;99.90;;;;;;4975367;28;20226;-63
2023/04/14 07:20:20;;;;;;;1.40;1.30;;;8.10;99.90;;;;;;4973867;28;20214;-63
2023/04/14 07:22:47;;;;;;;1.00;1.00;;;8.10;99.90;;;;;;4973436;28;20221;-61
2023/04/14 07:25:15;;;;;;;1.20;1.20;;;8.20;99.90;;;;;;4974163;28;20253;-62
2023/04/14 07:27:42;;;;;;;1.50;1.40;;;8.30;99.90;;;;;;4973334;28;20289;-62
2023/04/14 07:30:10;;;;;;;1.50;1.40;;;8.40;99.90;;;;;;4974204;28;20569;-64
2023/04/14 07:32:37;;;;;;;1.50;1.40;;;8.60;99.90;;;;;;4974530;28;20735;-66
2023/04/14 07:35:04;;;;;;;1.63;1.53;;;8.80;99.90;;;;;;4973524;28;20355;-62
2023/04/14 07:37:31;;;;;;;2.03;1.38;;;9.00;99.90;;;;;;4974132;28;20213;-64
2023/04/14 07:39:58;;;;;;;1.60;1.50;;;9.20;99.90;;;;;;4973368;28;20297;-63
2023/04/14 07:42:26;;;;;;;1.75;1.65;;;9.40;99.90;;;;;;4973664;28;20271;-64
2023/04/14 07:44:53;;;;;;;1.63;1.52;;;9.50;99.90;;;;;;4973844;28;20214;-64
2023/04/14 07:47:20;;;;;;;2.03;1.80;;;9.60;99.90;;;;;;4973535;28;20221;-62
2023/04/14 07:49:47;;;;;;;1.40;1.30;;;9.80;99.90;;;;;;4971389;28;20245;-63
2023/04/14 07:52:14;;;;;;;1.57;1.47;;;9.70;99.90;;;;;;4972132;28;20313;-61
2023/04/14 07:54:41;;;;;;;1.30;1.20;;;9.90;99.90;;;;;;4972250;28;20245;-62
2023/04/14 07:57:09;;;;;;;1.40;1.30;;;10.10;99.90;;;;;;4971533;28;20617;-64
2023/04/14 07:59:41;;;;;;;1.40;1.30;;;10.10;99.90;;;;;;4972055;28;20292;-62
2023/04/14 08:02:08;;;;;;;1.67;1.40;;;10.10;99.90;;;;;;4975177;28;20309;-63
2023/04/14 08:04:36;;;;;;;1.58;1.48;;;10.20;99.90;;;;;;4975738;28;20681;-65
2023/04/14 08:07:03;;;;;;;1.70;1.60;;;10.40;99.90;;;;;;4976391;28;20210;-64
2023/04/14 08:09:30;;;;;;;1.40;1.30;;;10.40;99.90;;;;;;4975858;28;20234;-64
2023/04/14 08:11:56;;;;;;;1.52;1.42;;;10.50;99.90;;;;;;4975689;28;20217;-64
2023/04/14 08:14:23;;;;;;;1.40;1.30;;;10.70;99.90;;;;;;4974863;28;20237;-64
2023/04/14 08:16:51;;;;;;;1.27;1.20;;;10.90;99.90;;;;;;4976745;28;20698;-64
2023/04/14 08:19:18;;;;;;;1.70;1.50;;;10.70;99.90;;;;;;4976165;28;20234;-63
2023/04/14 08:21:46;;;;;;;1.60;1.50;;;10.70;99.90;;;;;;4976857;28;20209;-64
2023/04/14 08:24:13;;;;;;;1.23;1.20;;;10.80;99.90;;;;;;4976006;28;20714;-63
2023/04/14 08:26:40;;;;;;;1.00;1.00;;;10.90;99.90;;;;;;4976258;28;20688;-63
2023/04/14 08:29:07;;;;;;;1.83;1.50;;;10.90;99.90;;;;;;4976522;28;20274;-63
2023/04/14 08:31:34;;;;;;;2.23;1.50;;;11.30;99.90;;;;;;4989294;28;20215;-63
2023/04/14 08:34:02;;;;;;;1.00;1.00;;;11.50;99.90;;;;;;4975505;28;20210;-62
2023/04/14 08:36:30;;;;;;;1.43;1.33;;;11.50;99.90;;;;;;4976342;28;20207;-64
2023/04/14 08:38:58;;;;;;;1.30;1.20;;;11.50;99.90;;;;;;4976653;28;20250;-64
2023/04/14 08:41:26;;;;;;;1.27;1.17;;;11.40;99.90;;;;;;4980864;28;20215;-63
2023/04/14 08:43:53;;;;;;;1.40;1.30;;;11.70;99.90;;;;;;4976471;28;20203;-64
2023/04/14 08:46:20;;;;;;;1.20;1.20;;;12.10;99.90;;;;;;4976100;28;20210;-62
2023/04/14 08:48:49;;;;;;;1.40;1.30;;;12.30;99.90;;;;;;4984319;28;20265;-63
2023/04/14 08:51:26;;;;;;;1.40;1.30;;;12.50;99.90;;;;;;4985058;28;20206;-64
2023/04/14 08:53:56;;;;;;;1.30;1.20;;;12.60;99.90;;;;;;4984846;28;20229;-63
2023/04/14 08:56:27;;;;;;;1.10;1.10;;;12.60;99.90;;;;;;4984129;28;20686;-63
2023/04/14 08:58:54;;;;;;;1.00;1.00;;;12.40;99.90;;;;;;4978672;28;20327;-63
2023/04/14 09:01:21;;;;;;;1.07;1.07;;;12.60;99.90;;;;;;4975022;28;20210;-62
2023/04/14 09:03:48;;;;;;;1.27;1.20;;;12.80;99.90;;;;;;4974977;28;20806;-63
2023/04/14 09:06:15;;;;;;;1.20;1.10;;;13.00;99.90;;;;;;4975155;28;20203;-64
2023/04/14 09:08:44;;;;;;;1.17;1.10;;;13.10;99.90;;;;;;4982234;28;20229;-64
2023/04/14 09:11:11;;;;;;;1.00;1.00;;;13.20;99.90;;;;;;4974398;28;20210;-63
2023/04/14 09:13:40;;;;;;;0.93;0.93;;;13.20;99.90;;;;;;4975959;28;20210;-62
2023/04/14 09:16:08;;;;;;;1.13;1.10;;;13.00;99.90;;;;;;4976469;28;20231;-65
2023/04/14 09:18:34;;;;;;;1.10;1.10;;;12.90;99.90;;;;;;4976238;28;20231;-63
2023/04/14 09:21:02;;;;;;;1.20;1.10;;;12.80;99.90;;;;;;4974692;28;20604;-63
2023/04/14 09:23:30;;;;;;;1.30;1.20;;;12.80;99.90;;;;;;4975006;28;20281;-64
2023/04/14 09:25:59;;;;;;;1.03;1.03;;;13.20;99.90;;;;;;4975339;28;20207;-63
2023/04/14 09:28:26;;;;;;;1.30;1.20;;;13.30;99.90;;;;;;4974884;28;20227;-63
2023/04/14 09:30:54;;;;;;;1.47;1.30;;;13.20;99.90;;;;;;4975368;28;20212;-62
2023/04/14 09:33:22;;;;;;;0.90;0.90;;;13.30;99.90;;;;;;4976156;28;20210;-62
2023/04/14 09:35:50;;;;;;;1.00;1.00;;;13.60;99.90;;;;;;4975988;28;20230;-63
2023/04/14 09:38:32;;;;;;;1.48;1.30;;;13.90;99.90;;;;;;4981229;28;20233;-64
2023/04/14 09:41:00;;;;;;;1.20;1.10;;;13.90;99.90;;;;;;4975372;28;20219;-62
2023/04/14 09:43:29;;;;;;;1.10;1.10;;;13.90;99.90;;;;;;4976476;28;20211;-63
2023/04/14 09:45:58;;;;;;;1.10;1.10;;;13.90;99.90;;;;;;4976177;28;20250;-62
2023/04/14 09:48:25;;;;;;;1.00;1.00;;;13.80;99.90;;;;;;4976267;28;20231;-64
2023/04/14 09:51:05;;;;;;;1.20;1.13;;;13.90;99.90;;;;;;4975402;28;20286;-64
2023/04/14 09:53:34;;;;;;;1.40;1.30;;;14.00;99.90;;;;;;4975290;28;20206;-64
2023/04/14 09:56:04;;;;;;;1.40;1.30;;;14.10;99.90;;;;;;4975431;28;20871;-63
2023/04/14 09:58:33;;;;;;;1.17;1.07;;;14.20;99.90;;;;;;4975694;28;20250;-64
2023/04/14 10:01:03;;;;;;;1.00;1.00;;;14.60;99.90;;;;;;4981815;28;20193;-62
2023/04/14 10:03:34;;;;;;;1.40;1.30;;;14.80;99.90;;;;;;4978835;28;20670;-64
2023/04/14 10:06:03;;;;;;;1.00;1.00;;;14.70;99.90;;;;;;4974793;28;20302;-64
2023/04/14 10:08:38;;;;;;;1.05;1.05;;;14.90;99.90;;;;;;4974998;28;20234;-64
2023/04/14 10:11:19;;;;;;;1.20;1.20;;;15.10;99.90;;;;;;4973742;28;20210;-62
2023/04/14 10:13:46;;;;;;;1.40;1.30;;;15.30;99.90;;;;;;4973863;28;20210;-63
2023/04/14 10:16:14;;;;;;;1.33;1.23;;;15.20;99.90;;;;;;4972828;28;20232;-63
2023/04/14 10:18:41;;;;;;;1.00;1.00;;;15.10;99.90;;;;;;4973455;28;20293;-62
2023/04/14 10:21:09;;;;;;;1.10;1.10;;;15.10;99.90;;;;;;4972727;28;20211;-65
2023/04/14 10:23:37;;;;;;;1.10;1.10;;;15.10;99.90;;;;;;4973676;28;20214;-62
2023/04/14 10:26:04;;;;;;;1.53;1.43;;;15.30;99.90;;;;;;4973008;28;20238;-63
2023/04/14 10:28:34;;;;;;;1.35;1.20;;;14.90;99.90;;;;;;4973741;28;20297;-63
2023/04/14 10:31:01;;;;;;;0.80;0.80;;;14.90;99.90;;;;;;4972320;28;20694;-63
2023/04/14 10:33:29;;;;;;;1.37;1.27;;;15.00;99.90;;;;;;4972755;28;20281;-62
2023/04/14 10:36:00;;;;;;;1.13;1.10;;;15.30;99.90;;;;;;4972896;28;20999;-63
2023/04/14 10:38:44;;;;;;;1.00;1.00;;;15.60;99.90;;;;;;4973061;28;20223;-63
2023/04/14 10:41:11;;;;;;;0.90;0.90;;;15.70;99.90;;;;;;4972403;28;20222;-63
2023/04/14 10:43:40;;;;;;;1.08;1.00;;;15.90;99.90;;;;;;4971450;28;20237;-63
2023/04/14 10:46:09;;;;;;;0.80;0.80;;;16.00;99.90;;;;;;4974603;28;20302;-64
2023/04/14 10:48:38;;;;;;;0.88;0.88;;;16.00;99.90;;;;;;4974234;28;20242;-61
2023/04/14 10:51:06;;;;;;;1.00;1.00;;;15.90;99.90;;;;;;4972980;28;20302;-63
2023/04/14 10:53:37;;;;;;;0.90;0.90;;;15.80;99.90;;;;;;4973216;28;20211;-62
2023/04/14 10:56:06;;;;;;;0.97;0.97;;;16.00;99.90;;;;;;4973417;28;20572;-65
2023/04/14 10:58:35;;;;;;;1.10;1.10;;;16.00;99.90;;;;;;4974855;28;20258;-62
2023/04/14 11:01:22;;;;;;;1.13;1.00;;;15.90;99.90;;;;;;4974143;28;20214;-62
2023/04/14 11:03:49;;;;;;;1.13;1.00;;;15.60;99.90;;;;;;4974611;28;20300;-63
2023/04/14 11:06:49;;;;;;;1.05;1.00;;;15.70;99.90;;;;;;4975311;28;20209;-62
2023/04/14 11:09:25;;;;;;;1.08;1.00;;;16.10;99.90;;;;;;4974871;28;20277;-64
2023/04/14 11:11:53;;;;;;;1.13;1.08;;;16.30;99.90;;;;;;4974457;28;20216;-63
2023/04/14 11:14:26;;;;;;;1.05;1.00;;;16.60;99.90;;;;;;4973767;28;20293;-62
2023/04/14 11:16:59;;;;;;;0.88;0.88;;;16.80;99.90;;;;;;4980471;28;20250;-63
2023/04/14 11:19:26;;;;;;;0.95;0.95;;;16.70;99.90;;;;;;4974304;28;20273;-63
2023/04/14 11:21:54;;;;;;;0.90;0.90;;;16.80;99.90;;;;;;4979340;28;20274;-63
2023/04/14 11:24:21;;;;;;;0.73;0.73;;;17.00;99.90;;;;;;4983503;28;20210;-62
2023/04/14 11:26:51;;;;;;;1.17;0.90;;;17.10;99.90;;;;;;4982363;28;20213;-62
2023/04/14 11:29:18;;;;;;;1.30;1.20;;;16.80;99.90;;;;;;4973545;28;20222;-64
2023/04/14 11:31:45;;;;;;;1.00;1.00;;;16.70;99.90;;;;;;4980705;28;20233;-64
2023/04/14 11:34:13;;;;;;;1.20;1.10;;;16.70;99.90;;;;;;4975886;28;20695;-64
2023/04/14 11:36:40;;;;;;;0.90;0.90;;;16.40;99.90;;;;;;4985678;28;20226;-62
2023/04/14 11:39:07;;;;;;;0.88;0.88;;;16.60;99.90;;;;;;4976082;28;20226;-62
2023/04/14 11:41:34;;;;;;;0.90;0.90;;;16.50;99.90;;;;;;4977525;28;20206;-62
2023/04/14 11:44:01;;;;;;;0.80;0.80;;;16.50;99.90;;;;;;4977022;28;20210;-62
2023/04/14 11:46:28;;;;;;;0.75;0.75;;;16.50;99.90;;;;;;4979811;28;20268;-62
2023/04/14 11:48:55;;;;;;;0.80;0.80;;;16.30;99.90;;;;;;4979666;28;20313;-62
2023/04/14 11:51:31;;;;;;;0.95;0.95;;;16.00;99.90;;;;;;4976326;28;20207;-61
2023/04/14 11:53:59;;;;;;;0.93;0.88;;;15.90;99.90;;;;;;4980935;28;20229;-63
2023/04/14 11:56:26;;;;;;;0.80;0.80;;;15.80;99.90;;;;;;4977527;28;20596;-63
2023/04/14 11:59:00;;;;;;;1.00;1.00;;;15.60;99.90;;;;;;4976294;28;20586;-63
2023/04/14 12:01:28;;;;;;;1.00;0.90;;;15.70;99.90;;;;;;4975997;28;20206;-62
2023/04/14 12:03:56;;;;;;;1.52;1.10;;;15.70;99.90;;;;;;4976487;28;20607;-61
2023/04/14 12:06:23;;;;;;;0.80;0.80;;;15.60;99.90;;;;;;4976964;28;20207;-63
2023/04/14 12:08:55;;;;;;;1.00;1.00;;;15.40;99.90;;;;;;4977287;28;20232;-64
2023/04/14 12:11:23;;;;;;;0.95;0.95;;;15.60;99.90;;;;;;4984421;28;20226;-63
2023/04/14 12:13:51;;;;;;;0.90;0.90;;;15.60;99.90;;;;;;4985605;28;20220;-66
2023/04/14 12:16:19;;;;;;;0.90;0.90;;;15.60;99.90;;;;;;4994813;28;20246;-68
2023/04/14 12:18:46;;;;;;;1.05;0.95;;;15.60;99.90;;;;;;4992109;28;20234;-61
2023/04/14 12:21:18;;;;;;;1.02;1.00;;;15.40;99.90;;;;;;4985164;28;20213;-64
2023/04/14 12:23:48;;;;;;;1.00;1.00;;;15.10;99.90;;;;;;4977179;28;20211;-64
2023/04/14 12:26:16;;;;;;;1.00;1.00;;;14.80;99.90;;;;;;4976746;28;20218;-63
2023/04/14 12:28:43;;;;;;;1.40;0.98;;;14.80;99.90;;;;;;4976729;28;20232;-64
2023/04/14 12:31:11;;;;;;;1.10;1.10;;;14.80;99.90;;;;;;4975875;28;20213;-62
2023/04/14 12:33:38;;;;;;;0.88;0.88;;;14.80;99.90;;;;;;4982414;28;20210;-64
2023/04/14 12:36:08;;;;;;;1.50;1.00;;;14.80;99.90;;;;;;4981471;28;20226;-62
2023/04/14 12:38:35;;;;;;;0.98;0.98;;;14.90;99.90;;;;;;4980711;28;20239;-63
2023/04/14 12:41:02;;;;;;;0.80;0.80;;;14.90;99.90;;;;;;4980097;28;20274;-63
2023/04/14 12:43:32;;;;;;;0.60;0.60;;;15.00;99.90;;;;;;4986194;28;20214;-63
2023/04/14 12:45:59;;;;;;;1.40;1.30;;;15.10;99.90;;;;;;4986326;28;20222;-63
2023/04/14 12:48:42;;;;;;;1.23;1.13;;;15.30;99.90;;;;;;4985773;28;20273;-62
2023/04/14 12:51:11;;;;;;;1.40;1.23;;;15.30;99.90;;;;;;4982488;28;20212;-62
2023/04/14 12:53:38;;;;;;;1.05;1.05;;;15.40;99.90;;;;;;4979620;28;20261;-63
2023/04/14 12:56:07;;;;;;;0.80;0.80;;;15.50;99.90;;;;;;4982427;28;20317;-62
2023/04/14 12:58:36;;;;;;;0.73;0.73;;;15.50;99.90;;;;;;4981658;28;20239;-63
2023/04/14 13:01:05;;;;;;;1.00;1.00;;;15.40;99.90;;;;;;4980539;28;20207;-64